Time;durP1;ratioP1;P1;durP2;ratioP2;P2;SDS_P1;SDS_P2;PMS_P1;PMS_P2;Temp;Humidity;BMP_temperature;BMP_pressure;BME280_temperature;BME280_humidity;BME280_pressure;Samples;Min_cycle;Max_cycle;Signal;HPM_P1;HPM_P2
2024/01/29 18:33:49;;;;;;;20.30;15.20;;;;;;;4.73;67.59;102210.33;105648;1311;548054;-88
2024/01/29 18:36:19;;;;;;;19.20;15.20;;;;;;;4.63;67.47;102210.06;108892;1289;24146;-84
2024/01/29 18:38:49;;;;;;;24.10;16.30;;;;;;;4.56;67.60;102203.27;108522;1284;22593;-83
2024/01/29 18:41:27;;;;;;;18.90;15.50;;;;;;;4.50;67.67;102201.62;107753;1284;22548;-83
2024/01/29 18:43:57;;;;;;;21.60;16.00;;;;;;;4.42;67.85;102203.90;107080;1266;25559;-85
2024/01/29 18:46:27;;;;;;;20.40;16.20;;;;;;;4.38;67.96;102208.21;105587;1288;1068676;-85
2024/01/29 18:48:56;;;;;;;21.70;16.00;;;;;;;4.30;68.04;102205.23;106143;1288;22675;-84
2024/01/29 18:51:49;;;;;;;20.00;15.40;;;;;;;4.25;68.23;102210.41;106128;1288;22545;-87
2024/01/29 18:54:21;;;;;;;22.60;16.20;;;;;;;4.24;68.53;102208.10;106762;1279;24230;-86
2024/01/29 18:56:52;;;;;;;21.80;16.10;;;;;;;4.22;68.63;102206.29;106399;1284;22548;-87
2024/01/29 18:59:26;;;;;;;19.30;15.50;;;;;;;4.25;68.81;102206.40;106338;1284;22620;-84
2024/01/29 19:01:54;;;;;;;22.90;15.80;;;;;;;4.25;68.73;102204.69;105900;1290;22549;-84
2024/01/29 19:04:26;;;;;;;23.10;17.30;;;;;;;4.21;68.75;102203.64;106206;1286;25268;-86
2024/01/29 19:06:55;;;;;;;24.80;16.70;;;;;;;4.20;68.79;102204.80;109835;1285;22261;-86
2024/01/29 19:09:24;;;;;;;21.60;15.60;;;;;;;4.17;68.71;102207.79;109739;1286;22443;-84
2024/01/29 19:11:53;;;;;;;20.70;17.10;;;;;;;4.15;68.85;102208.06;109638;1284;22158;-85
2024/01/29 19:14:23;;;;;;;21.00;16.40;;;;;;;4.10;68.91;102210.80;109789;1278;22330;-85
2024/01/29 19:16:52;;;;;;;18.30;15.00;;;;;;;4.08;69.09;102208.46;110157;1278;22178;-84
2024/01/29 19:19:20;;;;;;;23.00;16.40;;;;;;;4.11;69.22;102202.98;109901;1280;22260;-85
2024/01/29 19:21:49;;;;;;;22.60;16.80;;;;;;;4.15;69.25;102200.91;109794;1283;22289;-87
2024/01/29 19:24:37;;;;;;;24.60;16.70;;;;;;;4.14;69.25;102199.14;109782;1281;22914;-85
2024/01/29 19:27:07;;;;;;;24.00;17.70;;;;;;;4.16;69.29;102196.10;109718;1285;22268;-85
2024/01/29 19:29:56;;;;;;;20.50;16.70;;;;;;;4.17;69.47;102201.19;109720;1285;22164;-86
2024/01/29 19:32:24;;;;;;;21.00;16.60;;;;;;;4.18;69.32;102197.05;109761;1285;22195;-86
2024/01/29 19:34:52;;;;;;;23.80;17.10;;;;;;;4.16;69.24;102199.21;109510;1289;22200;-84
2024/01/29 19:37:45;;;;;;;23.60;17.80;;;;;;;4.09;69.12;102195.40;109738;1285;22276;-85
2024/01/29 19:40:14;;;;;;;21.80;17.20;;;;;;;4.04;69.40;102202.13;109920;1279;22394;-87
2024/01/29 19:42:43;;;;;;;22.70;17.60;;;;;;;4.00;69.44;102196.90;109710;1285;22152;-86
2024/01/29 19:45:16;;;;;;;23.40;18.30;;;;;;;3.97;69.49;102204.43;109804;1283;22287;-85
2024/01/29 19:48:12;;;;;;;22.50;17.50;;;;;;;3.97;69.59;102207.23;109864;1279;22230;-89
2024/01/29 19:50:43;;;;;;;24.80;18.60;;;;;;;3.99;69.74;102211.48;109809;1278;22351;-87
2024/01/29 19:53:21;;;;;;;22.50;18.10;;;;;;;4.00;69.76;102208.56;109750;1284;22304;-87
2024/01/29 19:55:57;;;;;;;27.60;20.70;;;;;;;3.95;69.57;102203.99;109927;1285;22251;-86
2024/01/29 19:58:25;;;;;;;22.10;17.80;;;;;;;3.90;69.67;102204.81;109952;1285;22294;-85
2024/01/29 20:01:20;;;;;;;27.80;19.60;;;;;;;3.85;69.65;102208.23;110084;1278;22182;-85
2024/01/29 20:03:56;;;;;;;25.50;18.30;;;;;;;3.80;69.66;102205.02;110190;1278;22667;-86
2024/01/29 20:06:27;;;;;;;21.90;16.70;;;;;;;3.77;69.87;102202.25;109890;1284;23143;-86
2024/01/29 20:08:58;;;;;;;21.10;17.40;;;;;;;3.75;69.80;102198.89;109885;1284;22414;-85
2024/01/29 20:11:26;;;;;;;25.40;18.70;;;;;;;3.75;69.92;102205.65;109860;1276;22407;-85
2024/01/29 20:13:53;;;;;;;23.10;18.90;;;;;;;3.76;69.90;102204.15;109508;1289;22937;-83
2024/01/29 20:16:22;;;;;;;24.50;19.00;;;;;;;3.74;69.94;102196.39;109004;1293;22237;-85
2024/01/29 20:18:50;;;;;;;25.90;19.30;;;;;;;3.74;69.95;102197.77;108778;1296;22194;-85
2024/01/29 20:21:19;;;;;;;21.00;18.40;;;;;;;3.70;69.93;102194.77;108696;1299;23105;-85
2024/01/29 20:23:46;;;;;;;24.50;19.30;;;;;;;3.65;69.91;102190.23;108742;1294;22367;-86
2024/01/29 20:26:15;;;;;;;24.30;17.70;;;;;;;3.60;70.00;102184.57;108878;1294;22353;-85
2024/01/29 20:28:43;;;;;;;25.00;18.50;;;;;;;3.55;70.15;102180.33;109128;1294;22190;-85
2024/01/29 20:31:22;;;;;;;25.70;18.50;;;;;;;3.53;70.17;102179.02;109197;1289;22256;-85
2024/01/29 20:33:53;;;;;;;25.40;19.30;;;;;;;3.53;70.13;102175.34;109590;1286;22209;-85
2024/01/29 20:36:21;;;;;;;23.90;17.90;;;;;;;3.52;70.27;102176.49;109887;1278;22204;-85
2024/01/29 20:38:51;;;;;;;26.00;20.30;;;;;;;3.49;70.31;102172.51;110091;1274;22140;-85
2024/01/29 20:41:19;;;;;;;26.40;20.20;;;;;;;3.47;70.45;102175.39;110570;1273;22219;-87
2024/01/29 20:43:51;;;;;;;23.90;18.80;;;;;;;3.44;70.44;102170.05;110441;1274;22297;-86
2024/01/29 20:46:19;;;;;;;25.20;18.90;;;;;;;3.39;70.49;102169.95;110029;1278;23073;-89
2024/01/29 20:48:51;;;;;;;26.30;19.70;;;;;;;3.37;70.61;102169.53;110048;1280;22209;-87
2024/01/29 20:51:19;;;;;;;23.70;19.30;;;;;;;3.35;70.70;102166.98;110007;1260;22290;-85
2024/01/29 20:53:47;;;;;;;25.20;19.10;;;;;;;3.36;70.84;102164.95;109982;1279;23051;-85
2024/01/29 20:56:15;;;;;;;24.30;19.40;;;;;;;3.38;70.79;102155.98;109956;1279;22136;-87
2024/01/29 20:58:46;;;;;;;26.00;19.60;;;;;;;3.35;70.77;102154.46;110030;1280;22170;-86
2024/01/29 21:01:15;;;;;;;26.00;19.90;;;;;;;3.34;70.92;102146.73;110094;1279;22353;-84
2024/01/29 21:03:43;;;;;;;26.60;19.00;;;;;;;3.30;70.84;102143.92;110194;1273;22922;-87
2024/01/29 21:06:11;;;;;;;24.00;19.20;;;;;;;3.28;70.94;102144.67;110144;1279;22384;-84
2024/01/29 21:08:39;;;;;;;27.40;19.40;;;;;;;3.27;70.96;102146.05;109828;1284;22169;-84
2024/01/29 21:11:06;;;;;;;26.70;20.70;;;;;;;3.29;71.10;102145.44;109775;1289;22162;-85
2024/01/29 21:13:35;;;;;;;26.00;19.40;;;;;;;3.30;71.16;102147.22;109726;1285;22496;-83
2024/01/29 21:16:05;;;;;;;26.60;19.90;;;;;;;3.27;71.04;102156.51;109585;1289;22960;-86
2024/01/29 21:18:33;;;;;;;28.00;20.20;;;;;;;3.26;71.17;102158.38;109544;1286;22172;-83
2024/01/29 21:21:01;;;;;;;27.70;20.30;;;;;;;3.22;71.21;102157.30;109455;1289;22129;-83
2024/01/29 21:23:28;;;;;;;23.80;20.60;;;;;;;3.20;71.33;102155.98;109659;1285;22345;-83
2024/01/29 21:25:58;;;;;;;27.50;20.50;;;;;;;3.20;71.38;102157.40;109768;1280;22153;-83
2024/01/29 21:28:26;;;;;;;26.90;21.50;;;;;;;3.22;71.35;102156.27;110047;1275;22829;-82
2024/01/29 21:30:53;;;;;;;25.40;19.10;;;;;;;3.25;71.41;102160.24;110594;1272;22119;-83
2024/01/29 21:33:21;;;;;;;27.20;20.80;;;;;;;3.28;71.25;102161.23;110349;1274;22838;-84
2024/01/29 21:35:48;;;;;;;27.80;21.10;;;;;;;3.25;71.28;102159.52;110509;1274;22174;-83
2024/01/29 21:38:15;;;;;;;26.60;20.00;;;;;;;3.23;71.26;102154.21;110046;1279;22153;-82
2024/01/29 21:40:44;;;;;;;27.10;21.60;;;;;;;3.21;71.24;102153.23;110011;1280;22179;-83
2024/01/29 21:43:12;;;;;;;29.20;21.50;;;;;;;3.18;71.22;102155.34;110045;1280;23301;-82
2024/01/29 21:45:39;;;;;;;27.80;21.60;;;;;;;3.17;71.40;102156.52;110058;1280;22418;-83
2024/01/29 21:48:12;;;;;;;26.80;20.90;;;;;;;3.16;71.40;102157.69;110080;1278;22194;-86
2024/01/29 21:50:45;;;;;;;26.50;20.20;;;;;;;3.15;71.36;102156.44;110065;1279;22165;-83
2024/01/29 21:53:17;;;;;;;26.30;20.70;;;;;;;3.13;71.24;102156.14;110083;1279;22188;-84
2024/01/29 21:55:58;;;;;;;28.00;21.00;;;;;;;3.11;71.45;102161.61;110055;1279;22186;-84
2024/01/29 21:58:25;;;;;;;28.50;21.20;;;;;;;3.07;71.39;102159.17;109896;1284;22635;-84
2024/01/29 22:01:02;;;;;;;26.90;21.20;;;;;;;2.99;71.55;102161.05;109815;1285;22182;-86
2024/01/29 22:03:34;;;;;;;30.20;22.10;;;;;;;2.95;71.54;102163.27;109999;1280;23080;-84
2024/01/29 22:06:18;;;;;;;27.70;21.20;;;;;;;2.91;71.71;102158.20;110067;1279;22241;-86
2024/01/29 22:09:34;;;;;;;25.70;19.60;;;;;;;2.89;71.93;102158.27;109839;1286;22189;-87
2024/01/29 22:15:38;;;;;;;28.70;21.30;;;;;;;2.91;71.99;102160.98;109885;1281;22168;-85
2024/01/29 22:18:10;;;;;;;24.70;19.00;;;;;;;2.91;71.98;102165.66;109957;1276;22285;-85
2024/01/29 22:20:42;;;;;;;29.00;22.30;;;;;;;2.87;71.95;102167.56;110067;1281;22233;-86
2024/01/29 22:23:16;;;;;;;30.30;21.60;;;;;;;2.85;72.11;102171.29;110025;1281;22179;-84
2024/01/29 22:25:45;;;;;;;30.90;21.30;;;;;;;2.85;72.16;102166.94;110115;1279;22166;-85
2024/01/29 22:28:14;;;;;;;28.00;20.70;;;;;;;2.86;72.20;102170.48;110466;1275;22618;-87
2024/01/29 22:30:46;;;;;;;29.00;21.10;;;;;;;2.89;72.23;102164.86;110503;1274;22156;-84
2024/01/29 22:33:13;;;;;;;31.00;21.40;;;;;;;2.93;72.31;102161.75;110411;1274;22095;-86
2024/01/29 22:35:44;;;;;;;26.20;21.00;;;;;;;2.98;72.31;102160.12;110609;1270;22247;-85
2024/01/29 22:38:12;;;;;;;28.80;21.50;;;;;;;3.01;72.15;102161.31;110575;1274;22122;-85
2024/01/29 22:40:40;;;;;;;26.90;22.20;;;;;;;3.00;72.11;102157.61;110436;1275;22124;-83
2024/01/29 22:43:07;;;;;;;27.40;21.70;;;;;;;2.98;72.04;102162.71;110548;1274;22088;-83
2024/01/29 22:45:34;;;;;;;27.00;20.80;;;;;;;2.95;72.19;102160.33;110579;1274;22099;-84
2024/01/29 22:48:02;;;;;;;29.80;23.00;;;;;;;2.93;72.07;102157.95;109988;1280;22880;-83
2024/01/29 22:50:31;;;;;;;30.30;24.70;;;;;;;2.90;72.19;102158.69;109999;1281;22423;-84
2024/01/29 22:52:59;;;;;;;31.70;23.10;;;;;;;2.87;72.19;102157.13;109996;1280;22599;-88
2024/01/29 22:55:27;;;;;;;28.00;21.60;;;;;;;2.86;72.13;102155.33;109688;1286;22160;-85
2024/01/29 22:57:54;;;;;;;29.90;22.30;;;;;;;2.84;72.23;102160.79;109822;1286;22882;-83
2024/01/29 23:00:24;;;;;;;27.60;21.60;;;;;;;2.85;72.32;102156.67;109832;1280;22296;-84
2024/01/29 23:02:52;;;;;;;31.30;21.60;;;;;;;2.83;72.27;102157.29;109419;1277;22516;-84
2024/01/29 23:05:20;;;;;;;29.90;23.00;;;;;;;2.79;72.33;102158.30;109461;1288;23043;-83
2024/01/29 23:07:48;;;;;;;30.30;23.20;;;;;;;2.78;72.37;102156.48;109444;1290;22172;-82
2024/01/29 23:10:19;;;;;;;29.80;23.20;;;;;;;2.74;72.32;102151.23;108844;1295;22997;-86
2024/01/29 23:12:46;;;;;;;27.40;22.00;;;;;;;2.68;72.41;102151.84;109299;1287;22264;-82
2024/01/29 23:15:15;;;;;;;29.40;21.60;;;;;;;2.63;72.50;102145.48;109675;1287;22188;-85
2024/01/29 23:17:44;;;;;;;30.70;22.50;;;;;;;2.63;72.67;102145.44;109749;1286;22635;-84
2024/01/29 23:20:11;;;;;;;29.90;21.80;;;;;;;2.64;72.79;102140.82;109679;1286;22361;-82
2024/01/29 23:22:41;;;;;;;29.20;22.40;;;;;;;2.64;72.77;102133.67;109774;1286;22665;-83
2024/01/29 23:25:10;;;;;;;31.20;22.30;;;;;;;2.57;72.69;102127.44;109414;1290;22148;-83
2024/01/29 23:27:37;;;;;;;30.90;23.40;;;;;;;2.54;72.89;102126.20;109555;1287;22168;-83
2024/01/29 23:30:05;;;;;;;30.60;23.70;;;;;;;2.51;73.00;102125.54;109795;1285;22246;-83
2024/01/29 23:32:33;;;;;;;31.40;24.10;;;;;;;2.49;72.96;102125.09;109852;1286;22198;-82
2024/01/29 23:35:00;;;;;;;35.00;24.60;;;;;;;2.48;73.12;102124.38;110027;1281;22114;-81
2024/01/29 23:37:28;;;;;;;30.20;23.70;;;;;;;2.48;73.20;102127.34;109800;1287;22171;-82
2024/01/29 23:39:55;;;;;;;31.90;23.00;;;;;;;2.47;73.15;102122.92;109907;1287;22169;-82
2024/01/29 23:42:22;;;;;;;30.90;22.70;;;;;;;2.47;73.29;102123.98;109943;1286;22289;-83
2024/01/29 23:44:51;;;;;;;31.10;22.60;;;;;;;2.48;73.23;102123.67;109827;1282;22378;-82
2024/01/29 23:47:18;;;;;;;30.90;22.80;;;;;;;2.49;73.28;102120.06;109406;1293;22174;-85
2024/01/29 23:49:46;;;;;;;33.10;24.70;;;;;;;2.51;73.30;102117.71;108738;1296;22919;-87
2024/01/29 23:52:33;;;;;;;29.70;23.20;;;;;;;2.51;73.40;102118.06;108699;1296;22314;-83
2024/01/29 23:55:00;;;;;;;31.60;23.50;;;;;;;2.51;73.30;102114.94;109154;1292;22968;-84
2024/01/29 23:57:30;;;;;;;32.00;23.20;;;;;;;2.47;73.19;102112.48;109526;1292;22273;-83
2024/01/29 23:59:57;;;;;;;30.40;22.60;;;;;;;2.43;73.23;102109.16;109438;1289;22165;-82
